sensor_id;sensor_type;location;lat;lon;timestamp;P1;durP1;ratioP1;P2;durP2;ratioP2
6590;SDS011;3331;47.978;7.662;2022-11-15T00:01:46;5.80;;;3.20;;
6590;SDS011;3331;47.978;7.662;2022-11-15T00:04:14;6.23;;;3.50;;
6590;SDS011;3331;47.978;7.662;2022-11-15T00:06:40;4.83;;;3.00;;
6590;SDS011;3331;47.978;7.662;2022-11-15T00:09:06;2.73;;;2.53;;
6590;SDS011;3331;47.978;7.662;2022-11-15T00:11:33;5.60;;;3.27;;
6590;SDS011;3331;47.978;7.662;2022-11-15T00:13:59;6.23;;;3.23;;
6590;SDS011;3331;47.978;7.662;2022-11-15T00:16:27;6.20;;;2.97;;
6590;SDS011;3331;47.978;7.662;2022-11-15T00:18:53;5.00;;;3.30;;
6590;SDS011;3331;47.978;7.662;2022-11-15T00:21:21;4.73;;;2.93;;
6590;SDS011;3331;47.978;7.662;2022-11-15T00:23:48;3.70;;;2.70;;
6590;SDS011;3331;47.978;7.662;2022-11-15T00:26:14;3.53;;;3.23;;
6590;SDS011;3331;47.978;7.662;2022-11-15T00:28:41;3.87;;;3.20;;
6590;SDS011;3331;47.978;7.662;2022-11-15T00:31:09;4.47;;;3.07;;
6590;SDS011;3331;47.978;7.662;2022-11-15T00:33:37;4.17;;;2.90;;
6590;SDS011;3331;47.978;7.662;2022-11-15T00:36:04;4.23;;;3.33;;
6590;SDS011;3331;47.978;7.662;2022-11-15T00:38:33;4.27;;;3.33;;
6590;SDS011;3331;47.978;7.662;2022-11-15T00:41:00;3.83;;;3.10;;
6590;SDS011;3331;47.978;7.662;2022-11-15T00:43:27;3.97;;;2.83;;
6590;SDS011;3331;47.978;7.662;2022-11-15T00:45:53;4.60;;;3.23;;
6590;SDS011;3331;47.978;7.662;2022-11-15T00:48:20;3.77;;;3.13;;
6590;SDS011;3331;47.978;7.662;2022-11-15T00:50:46;3.30;;;2.83;;
6590;SDS011;3331;47.978;7.662;2022-11-15T00:53:13;4.57;;;3.07;;
6590;SDS011;3331;47.978;7.662;2022-11-15T00:55:41;5.27;;;2.97;;
6590;SDS011;3331;47.978;7.662;2022-11-15T00:58:07;3.37;;;3.03;;
6590;SDS011;3331;47.978;7.662;2022-11-15T01:00:34;5.37;;;3.20;;
6590;SDS011;3331;47.978;7.662;2022-11-15T01:03:00;3.43;;;2.63;;
6590;SDS011;3331;47.978;7.662;2022-11-15T01:05:27;4.40;;;2.87;;
6590;SDS011;3331;47.978;7.662;2022-11-15T01:07:54;5.97;;;3.33;;
6590;SDS011;3331;47.978;7.662;2022-11-15T01:10:20;4.30;;;3.00;;
6590;SDS011;3331;47.978;7.662;2022-11-15T01:12:49;4.23;;;3.30;;
6590;SDS011;3331;47.978;7.662;2022-11-15T01:15:15;3.73;;;3.23;;
6590;SDS011;3331;47.978;7.662;2022-11-15T01:17:42;4.37;;;3.03;;
6590;SDS011;3331;47.978;7.662;2022-11-15T01:20:08;4.47;;;3.67;;
6590;SDS011;3331;47.978;7.662;2022-11-15T01:22:35;4.90;;;3.10;;
6590;SDS011;3331;47.978;7.662;2022-11-15T01:25:01;3.40;;;2.90;;
6590;SDS011;3331;47.978;7.662;2022-11-15T01:27:28;5.67;;;3.43;;
6590;SDS011;3331;47.978;7.662;2022-11-15T01:29:56;5.37;;;3.20;;
6590;SDS011;3331;47.978;7.662;2022-11-15T01:32:22;3.73;;;2.90;;
6590;SDS011;3331;47.978;7.662;2022-11-15T01:34:48;4.50;;;2.97;;
6590;SDS011;3331;47.978;7.662;2022-11-15T01:37:15;4.97;;;3.17;;
6590;SDS011;3331;47.978;7.662;2022-11-15T01:39:41;5.87;;;2.90;;
6590;SDS011;3331;47.978;7.662;2022-11-15T01:42:09;5.40;;;2.93;;
6590;SDS011;3331;47.978;7.662;2022-11-15T01:44:39;4.13;;;3.13;;
6590;SDS011;3331;47.978;7.662;2022-11-15T01:47:08;6.67;;;4.20;;
6590;SDS011;3331;47.978;7.662;2022-11-15T01:49:35;4.63;;;3.00;;
6590;SDS011;3331;47.978;7.662;2022-11-15T01:52:05;3.57;;;3.23;;
6590;SDS011;3331;47.978;7.662;2022-11-15T01:54:33;6.60;;;3.63;;
6590;SDS011;3331;47.978;7.662;2022-11-15T01:57:01;5.97;;;4.80;;
6590;SDS011;3331;47.978;7.662;2022-11-15T01:59:27;5.07;;;3.97;;
6590;SDS011;3331;47.978;7.662;2022-11-15T02:01:54;5.53;;;3.50;;
6590;SDS011;3331;47.978;7.662;2022-11-15T02:04:25;5.77;;;3.47;;
6590;SDS011;3331;47.978;7.662;2022-11-15T02:06:52;4.70;;;3.87;;
6590;SDS011;3331;47.978;7.662;2022-11-15T02:09:18;6.50;;;3.20;;
6590;SDS011;3331;47.978;7.662;2022-11-15T02:11:45;3.73;;;2.80;;
6590;SDS011;3331;47.978;7.662;2022-11-15T02:14:12;4.47;;;2.90;;
6590;SDS011;3331;47.978;7.662;2022-11-15T02:16:42;6.17;;;2.80;;
6590;SDS011;3331;47.978;7.662;2022-11-15T02:19:13;3.47;;;2.97;;
6590;SDS011;3331;47.978;7.662;2022-11-15T02:21:49;4.83;;;3.13;;
6590;SDS011;3331;47.978;7.662;2022-11-15T02:24:31;3.63;;;3.27;;
6590;SDS011;3331;47.978;7.662;2022-11-15T02:29:55;4.27;;;2.90;;
6590;SDS011;3331;47.978;7.662;2022-11-15T02:32:29;5.23;;;3.23;;
6590;SDS011;3331;47.978;7.662;2022-11-15T02:35:00;4.73;;;3.10;;
6590;SDS011;3331;47.978;7.662;2022-11-15T02:37:31;6.90;;;3.80;;
6590;SDS011;3331;47.978;7.662;2022-11-15T02:40:02;3.93;;;3.17;;
6590;SDS011;3331;47.978;7.662;2022-11-15T02:42:33;5.80;;;3.80;;
6590;SDS011;3331;47.978;7.662;2022-11-15T02:45:20;4.27;;;3.83;;
6590;SDS011;3331;47.978;7.662;2022-11-15T02:47:49;7.83;;;5.07;;
6590;SDS011;3331;47.978;7.662;2022-11-15T02:50:17;5.40;;;3.90;;
6590;SDS011;3331;47.978;7.662;2022-11-15T02:52:44;4.90;;;4.00;;
6590;SDS011;3331;47.978;7.662;2022-11-15T02:55:25;8.50;;;4.67;;
6590;SDS011;3331;47.978;7.662;2022-11-15T02:57:52;4.20;;;3.17;;
6590;SDS011;3331;47.978;7.662;2022-11-15T03:00:23;6.10;;;3.57;;
6590;SDS011;3331;47.978;7.662;2022-11-15T03:02:56;5.83;;;4.00;;
6590;SDS011;3331;47.978;7.662;2022-11-15T03:05:25;5.20;;;3.40;;
6590;SDS011;3331;47.978;7.662;2022-11-15T03:07:54;5.70;;;3.20;;
6590;SDS011;3331;47.978;7.662;2022-11-15T03:10:24;5.53;;;3.27;;
6590;SDS011;3331;47.978;7.662;2022-11-15T03:12:56;4.07;;;2.70;;
6590;SDS011;3331;47.978;7.662;2022-11-15T03:15:25;4.87;;;3.10;;
6590;SDS011;3331;47.978;7.662;2022-11-15T03:17:55;3.97;;;3.20;;
6590;SDS011;3331;47.978;7.662;2022-11-15T03:20:22;5.53;;;4.40;;
6590;SDS011;3331;47.978;7.662;2022-11-15T03:22:50;5.33;;;3.70;;
6590;SDS011;3331;47.978;7.662;2022-11-15T03:25:17;4.80;;;3.50;;
6590;SDS011;3331;47.978;7.662;2022-11-15T03:27:46;5.37;;;3.60;;
6590;SDS011;3331;47.978;7.662;2022-11-15T03:30:14;6.40;;;4.87;;
6590;SDS011;3331;47.978;7.662;2022-11-15T03:32:42;6.17;;;4.00;;
6590;SDS011;3331;47.978;7.662;2022-11-15T03:35:12;5.93;;;3.70;;
6590;SDS011;3331;47.978;7.662;2022-11-15T03:37:40;4.80;;;3.37;;
6590;SDS011;3331;47.978;7.662;2022-11-15T03:40:08;4.60;;;3.33;;
6590;SDS011;3331;47.978;7.662;2022-11-15T03:42:36;6.80;;;4.40;;
6590;SDS011;3331;47.978;7.662;2022-11-15T03:45:06;6.33;;;3.53;;
6590;SDS011;3331;47.978;7.662;2022-11-15T03:47:34;7.60;;;4.13;;
6590;SDS011;3331;47.978;7.662;2022-11-15T03:50:03;5.87;;;3.77;;
6590;SDS011;3331;47.978;7.662;2022-11-15T03:52:32;4.57;;;3.30;;
6590;SDS011;3331;47.978;7.662;2022-11-15T03:55:00;3.80;;;3.17;;
6590;SDS011;3331;47.978;7.662;2022-11-15T03:57:27;7.17;;;3.60;;
6590;SDS011;3331;47.978;7.662;2022-11-15T03:59:54;4.33;;;2.90;;
6590;SDS011;3331;47.978;7.662;2022-11-15T04:02:20;4.97;;;3.00;;
6590;SDS011;3331;47.978;7.662;2022-11-15T04:04:46;6.40;;;3.27;;
6590;SDS011;3331;47.978;7.662;2022-11-15T04:07:13;3.27;;;2.93;;
6590;SDS011;3331;47.978;7.662;2022-11-15T04:09:43;5.47;;;3.53;;
6590;SDS011;3331;47.978;7.662;2022-11-15T04:12:28;4.83;;;2.83;;
6590;SDS011;3331;47.978;7.662;2022-11-15T04:14:58;3.80;;;3.07;;
6590;SDS011;3331;47.978;7.662;2022-11-15T04:17:34;5.27;;;2.97;;
6590;SDS011;3331;47.978;7.662;2022-11-15T04:20:01;3.63;;;2.90;;
6590;SDS011;3331;47.978;7.662;2022-11-15T04:22:45;2.90;;;2.53;;
6590;SDS011;3331;47.978;7.662;2022-11-15T04:25:31;4.60;;;3.03;;
6590;SDS011;3331;47.978;7.662;2022-11-15T04:27:57;4.10;;;2.93;;
6590;SDS011;3331;47.978;7.662;2022-11-15T04:30:23;3.97;;;3.23;;
6590;SDS011;3331;47.978;7.662;2022-11-15T04:32:50;4.20;;;2.50;;
6590;SDS011;3331;47.978;7.662;2022-11-15T04:35:16;3.37;;;2.60;;
6590;SDS011;3331;47.978;7.662;2022-11-15T04:37:43;3.23;;;2.73;;
6590;SDS011;3331;47.978;7.662;2022-11-15T04:40:09;3.30;;;2.43;;
6590;SDS011;3331;47.978;7.662;2022-11-15T04:42:37;4.13;;;2.63;;
6590;SDS011;3331;47.978;7.662;2022-11-15T04:45:04;3.40;;;2.63;;
6590;SDS011;3331;47.978;7.662;2022-11-15T04:47:30;4.90;;;2.77;;
6590;SDS011;3331;47.978;7.662;2022-11-15T04:49:57;4.07;;;2.80;;
6590;SDS011;3331;47.978;7.662;2022-11-15T04:52:23;3.17;;;2.70;;
6590;SDS011;3331;47.978;7.662;2022-11-15T04:54:49;3.53;;;2.50;;
6590;SDS011;3331;47.978;7.662;2022-11-15T04:57:16;4.07;;;2.97;;
6590;SDS011;3331;47.978;7.662;2022-11-15T04:59:43;6.67;;;2.83;;
6590;SDS011;3331;47.978;7.662;2022-11-15T05:02:10;5.23;;;2.70;;
6590;SDS011;3331;47.978;7.662;2022-11-15T05:04:36;4.87;;;2.93;;
6590;SDS011;3331;47.978;7.662;2022-11-15T05:07:01;4.30;;;3.13;;
6590;SDS011;3331;47.978;7.662;2022-11-15T05:09:30;3.93;;;3.03;;
6590;SDS011;3331;47.978;7.662;2022-11-15T05:11:56;3.70;;;3.00;;
6590;SDS011;3331;47.978;7.662;2022-11-15T05:14:22;5.93;;;3.17;;
6590;SDS011;3331;47.978;7.662;2022-11-15T05:16:50;3.97;;;3.37;;
6590;SDS011;3331;47.978;7.662;2022-11-15T05:19:17;4.67;;;2.87;;
6590;SDS011;3331;47.978;7.662;2022-11-15T05:21:43;5.13;;;3.10;;
6590;SDS011;3331;47.978;7.662;2022-11-15T05:24:09;5.23;;;3.20;;
6590;SDS011;3331;47.978;7.662;2022-11-15T05:26:37;6.17;;;3.40;;
6590;SDS011;3331;47.978;7.662;2022-11-15T05:29:03;6.37;;;2.77;;
6590;SDS011;3331;47.978;7.662;2022-11-15T05:31:29;4.10;;;3.03;;
6590;SDS011;3331;47.978;7.662;2022-11-15T05:33:57;4.23;;;3.37;;
6590;SDS011;3331;47.978;7.662;2022-11-15T05:36:26;5.17;;;2.83;;
6590;SDS011;3331;47.978;7.662;2022-11-15T05:38:53;5.67;;;4.53;;
6590;SDS011;3331;47.978;7.662;2022-11-15T05:41:20;5.97;;;3.20;;
6590;SDS011;3331;47.978;7.662;2022-11-15T05:43:48;3.40;;;2.73;;
6590;SDS011;3331;47.978;7.662;2022-11-15T05:46:15;3.13;;;2.60;;
6590;SDS011;3331;47.978;7.662;2022-11-15T05:48:41;5.63;;;2.97;;
6590;SDS011;3331;47.978;7.662;2022-11-15T05:51:11;4.30;;;3.03;;
6590;SDS011;3331;47.978;7.662;2022-11-15T05:53:38;3.37;;;2.80;;
6590;SDS011;3331;47.978;7.662;2022-11-15T05:56:05;3.73;;;2.80;;
6590;SDS011;3331;47.978;7.662;2022-11-15T05:58:31;5.43;;;3.30;;
6590;SDS011;3331;47.978;7.662;2022-11-15T06:00:58;3.27;;;2.63;;
6590;SDS011;3331;47.978;7.662;2022-11-15T06:03:25;7.13;;;3.20;;
6590;SDS011;3331;47.978;7.662;2022-11-15T06:05:51;5.73;;;3.10;;
6590;SDS011;3331;47.978;7.662;2022-11-15T06:08:19;5.07;;;3.10;;
6590;SDS011;3331;47.978;7.662;2022-11-15T06:10:45;3.03;;;2.63;;
6590;SDS011;3331;47.978;7.662;2022-11-15T06:13:12;5.90;;;3.00;;
6590;SDS011;3331;47.978;7.662;2022-11-15T06:15:38;3.03;;;2.57;;
6590;SDS011;3331;47.978;7.662;2022-11-15T06:18:04;4.60;;;2.60;;
6590;SDS011;3331;47.978;7.662;2022-11-15T06:20:31;4.30;;;2.63;;
6590;SDS011;3331;47.978;7.662;2022-11-15T06:22:57;3.47;;;2.60;;
6590;SDS011;3331;47.978;7.662;2022-11-15T06:25:25;7.03;;;3.17;;
6590;SDS011;3331;47.978;7.662;2022-11-15T06:27:52;7.20;;;2.97;;
6590;SDS011;3331;47.978;7.662;2022-11-15T06:30:18;3.63;;;2.63;;
6590;SDS011;3331;47.978;7.662;2022-11-15T06:32:45;6.80;;;2.87;;
6590;SDS011;3331;47.978;7.662;2022-11-15T06:35:11;8.53;;;4.20;;
6590;SDS011;3331;47.978;7.662;2022-11-15T06:37:38;8.57;;;3.87;;
6590;SDS011;3331;47.978;7.662;2022-11-15T06:40:05;8.37;;;4.40;;
6590;SDS011;3331;47.978;7.662;2022-11-15T06:42:33;7.40;;;4.27;;
6590;SDS011;3331;47.978;7.662;2022-11-15T06:44:59;10.07;;;5.10;;
6590;SDS011;3331;47.978;7.662;2022-11-15T06:47:26;5.97;;;3.57;;
6590;SDS011;3331;47.978;7.662;2022-11-15T06:49:52;7.27;;;3.73;;
6590;SDS011;3331;47.978;7.662;2022-11-15T06:52:18;15.20;;;7.03;;
6590;SDS011;3331;47.978;7.662;2022-11-15T06:54:46;10.67;;;6.10;;
6590;SDS011;3331;47.978;7.662;2022-11-15T06:57:13;10.33;;;5.37;;
6590;SDS011;3331;47.978;7.662;2022-11-15T06:59:41;8.37;;;4.20;;
6590;SDS011;3331;47.978;7.662;2022-11-15T07:02:10;9.97;;;4.03;;
6590;SDS011;3331;47.978;7.662;2022-11-15T07:04:37;5.97;;;3.07;;
6590;SDS011;3331;47.978;7.662;2022-11-15T07:07:04;5.83;;;3.23;;
6590;SDS011;3331;47.978;7.662;2022-11-15T07:09:30;4.83;;;3.37;;
6590;SDS011;3331;47.978;7.662;2022-11-15T07:11:56;4.77;;;3.10;;
6590;SDS011;3331;47.978;7.662;2022-11-15T07:14:23;4.50;;;3.20;;
6590;SDS011;3331;47.978;7.662;2022-11-15T07:16:50;4.20;;;2.93;;
6590;SDS011;3331;47.978;7.662;2022-11-15T07:19:17;4.70;;;2.90;;
6590;SDS011;3331;47.978;7.662;2022-11-15T07:21:43;4.30;;;2.93;;
6590;SDS011;3331;47.978;7.662;2022-11-15T07:24:09;5.07;;;2.60;;
6590;SDS011;3331;47.978;7.662;2022-11-15T07:26:36;5.27;;;3.07;;
6590;SDS011;3331;47.978;7.662;2022-11-15T07:29:02;5.50;;;3.93;;
6590;SDS011;3331;47.978;7.662;2022-11-15T07:31:29;5.07;;;3.60;;
6590;SDS011;3331;47.978;7.662;2022-11-15T07:33:56;8.17;;;3.63;;
6590;SDS011;3331;47.978;7.662;2022-11-15T07:36:23;4.87;;;3.30;;
6590;SDS011;3331;47.978;7.662;2022-11-15T07:38:49;6.10;;;3.60;;
6590;SDS011;3331;47.978;7.662;2022-11-15T07:41:15;6.43;;;3.60;;
6590;SDS011;3331;47.978;7.662;2022-11-15T07:43:42;4.67;;;3.10;;
6590;SDS011;3331;47.978;7.662;2022-11-15T07:46:08;3.43;;;2.53;;
6590;SDS011;3331;47.978;7.662;2022-11-15T07:48:35;3.03;;;2.67;;
6590;SDS011;3331;47.978;7.662;2022-11-15T07:51:03;6.20;;;3.43;;
6590;SDS011;3331;47.978;7.662;2022-11-15T07:53:29;4.70;;;3.10;;
6590;SDS011;3331;47.978;7.662;2022-11-15T07:55:55;7.77;;;4.33;;
6590;SDS011;3331;47.978;7.662;2022-11-15T07:58:22;8.63;;;3.40;;
6590;SDS011;3331;47.978;7.662;2022-11-15T08:00:48;4.97;;;3.10;;
6590;SDS011;3331;47.978;7.662;2022-11-15T08:03:15;8.50;;;3.47;;
6590;SDS011;3331;47.978;7.662;2022-11-15T08:05:42;4.57;;;3.00;;
6590;SDS011;3331;47.978;7.662;2022-11-15T08:08:10;3.13;;;2.40;;
6590;SDS011;3331;47.978;7.662;2022-11-15T08:10:37;3.97;;;2.70;;
6590;SDS011;3331;47.978;7.662;2022-11-15T08:13:03;3.23;;;2.40;;
6590;SDS011;3331;47.978;7.662;2022-11-15T08:15:30;3.43;;;2.50;;
6590;SDS011;3331;47.978;7.662;2022-11-15T08:17:58;6.63;;;2.70;;
6590;SDS011;3331;47.978;7.662;2022-11-15T08:20:25;2.80;;;2.57;;
6590;SDS011;3331;47.978;7.662;2022-11-15T08:22:51;3.77;;;2.50;;
6590;SDS011;3331;47.978;7.662;2022-11-15T08:25:19;3.53;;;2.77;;
6590;SDS011;3331;47.978;7.662;2022-11-15T08:27:46;2.67;;;2.30;;
6590;SDS011;3331;47.978;7.662;2022-11-15T08:30:12;3.90;;;2.40;;
6590;SDS011;3331;47.978;7.662;2022-11-15T08:32:41;4.53;;;2.93;;
6590;SDS011;3331;47.978;7.662;2022-11-15T08:35:07;3.90;;;2.47;;
6590;SDS011;3331;47.978;7.662;2022-11-15T08:37:34;3.83;;;3.00;;
6590;SDS011;3331;47.978;7.662;2022-11-15T08:40:00;5.17;;;3.13;;
6590;SDS011;3331;47.978;7.662;2022-11-15T08:42:28;3.13;;;2.50;;
6590;SDS011;3331;47.978;7.662;2022-11-15T08:44:54;3.40;;;2.97;;
6590;SDS011;3331;47.978;7.662;2022-11-15T08:47:21;4.17;;;2.47;;
6590;SDS011;3331;47.978;7.662;2022-11-15T08:49:47;4.57;;;2.73;;
6590;SDS011;3331;47.978;7.662;2022-11-15T08:52:14;4.13;;;2.70;;
6590;SDS011;3331;47.978;7.662;2022-11-15T08:54:40;3.77;;;2.50;;
6590;SDS011;3331;47.978;7.662;2022-11-15T08:57:07;4.30;;;2.93;;
6590;SDS011;3331;47.978;7.662;2022-11-15T08:59:35;5.83;;;2.60;;
6590;SDS011;3331;47.978;7.662;2022-11-15T09:02:02;6.67;;;2.70;;
6590;SDS011;3331;47.978;7.662;2022-11-15T09:04:28;5.00;;;3.10;;
6590;SDS011;3331;47.978;7.662;2022-11-15T09:06:55;4.70;;;3.67;;
6590;SDS011;3331;47.978;7.662;2022-11-15T09:09:21;10.83;;;6.20;;
6590;SDS011;3331;47.978;7.662;2022-11-15T09:11:48;8.10;;;6.17;;
6590;SDS011;3331;47.978;7.662;2022-11-15T09:14:16;10.57;;;6.13;;
6590;SDS011;3331;47.978;7.662;2022-11-15T09:16:44;24.77;;;10.80;;
6590;SDS011;3331;47.978;7.662;2022-11-15T09:19:10;8.40;;;4.60;;
6590;SDS011;3331;47.978;7.662;2022-11-15T09:21:37;9.63;;;5.47;;
6590;SDS011;3331;47.978;7.662;2022-11-15T09:24:03;12.23;;;7.03;;
6590;SDS011;3331;47.978;7.662;2022-11-15T09:26:30;14.37;;;6.20;;
6590;SDS011;3331;47.978;7.662;2022-11-15T09:28:56;9.10;;;5.53;;
6590;SDS011;3331;47.978;7.662;2022-11-15T09:31:23;15.67;;;7.60;;
6590;SDS011;3331;47.978;7.662;2022-11-15T09:33:50;8.07;;;4.97;;
6590;SDS011;3331;47.978;7.662;2022-11-15T09:36:17;7.20;;;4.40;;
6590;SDS011;3331;47.978;7.662;2022-11-15T09:38:43;9.90;;;4.07;;
6590;SDS011;3331;47.978;7.662;2022-11-15T09:41:16;8.07;;;4.37;;
6590;SDS011;3331;47.978;7.662;2022-11-15T09:43:49;11.97;;;5.00;;
6590;SDS011;3331;47.978;7.662;2022-11-15T09:46:22;7.73;;;3.70;;
6590;SDS011;3331;47.978;7.662;2022-11-15T09:48:53;7.97;;;6.43;;
6590;SDS011;3331;47.978;7.662;2022-11-15T09:51:28;12.30;;;9.57;;
6590;SDS011;3331;47.978;7.662;2022-11-15T09:53:56;8.43;;;6.00;;
6590;SDS011;3331;47.978;7.662;2022-11-15T09:56:24;10.93;;;3.73;;
6590;SDS011;3331;47.978;7.662;2022-11-15T09:58:53;7.50;;;4.47;;
6590;SDS011;3331;47.978;7.662;2022-11-15T10:01:25;9.07;;;5.60;;
6590;SDS011;3331;47.978;7.662;2022-11-15T10:03:57;9.73;;;5.83;;
6590;SDS011;3331;47.978;7.662;2022-11-15T10:06:25;10.37;;;5.17;;
6590;SDS011;3331;47.978;7.662;2022-11-15T10:08:54;7.83;;;4.77;;
6590;SDS011;3331;47.978;7.662;2022-11-15T10:11:22;7.40;;;4.93;;
6590;SDS011;3331;47.978;7.662;2022-11-15T10:13:50;9.63;;;5.23;;
6590;SDS011;3331;47.978;7.662;2022-11-15T10:16:22;9.67;;;4.27;;
6590;SDS011;3331;47.978;7.662;2022-11-15T10:18:56;4.93;;;3.47;;
6590;SDS011;3331;47.978;7.662;2022-11-15T10:21:29;7.87;;;3.23;;
6590;SDS011;3331;47.978;7.662;2022-11-15T10:23:58;4.20;;;3.40;;
6590;SDS011;3331;47.978;7.662;2022-11-15T10:26:25;5.63;;;3.63;;
6590;SDS011;3331;47.978;7.662;2022-11-15T10:28:51;3.50;;;3.10;;
6590;SDS011;3331;47.978;7.662;2022-11-15T10:31:22;5.13;;;3.40;;
6590;SDS011;3331;47.978;7.662;2022-11-15T10:33:49;7.50;;;3.63;;
6590;SDS011;3331;47.978;7.662;2022-11-15T10:36:22;9.23;;;3.97;;
6590;SDS011;3331;47.978;7.662;2022-11-15T10:38:56;13.03;;;4.20;;
6590;SDS011;3331;47.978;7.662;2022-11-15T10:41:30;10.03;;;3.77;;
6590;SDS011;3331;47.978;7.662;2022-11-15T10:44:08;6.20;;;3.50;;
6590;SDS011;3331;47.978;7.662;2022-11-15T10:46:36;3.83;;;2.97;;
6590;SDS011;3331;47.978;7.662;2022-11-15T10:49:11;3.87;;;2.70;;
6590;SDS011;3331;47.978;7.662;2022-11-15T10:51:40;7.07;;;3.63;;
6590;SDS011;3331;47.978;7.662;2022-11-15T10:54:09;3.70;;;3.00;;
6590;SDS011;3331;47.978;7.662;2022-11-15T10:56:36;6.13;;;3.53;;
6590;SDS011;3331;47.978;7.662;2022-11-15T10:59:03;3.87;;;3.30;;
6590;SDS011;3331;47.978;7.662;2022-11-15T11:01:29;5.43;;;3.47;;
6590;SDS011;3331;47.978;7.662;2022-11-15T11:03:59;6.33;;;3.53;;
6590;SDS011;3331;47.978;7.662;2022-11-15T11:06:26;19.70;;;5.40;;
6590;SDS011;3331;47.978;7.662;2022-11-15T11:08:53;5.87;;;4.37;;
6590;SDS011;3331;47.978;7.662;2022-11-15T11:11:21;8.13;;;3.47;;
6590;SDS011;3331;47.978;7.662;2022-11-15T11:13:48;7.70;;;4.87;;
6590;SDS011;3331;47.978;7.662;2022-11-15T11:16:17;9.90;;;4.67;;
6590;SDS011;3331;47.978;7.662;2022-11-15T11:18:47;12.60;;;5.40;;
6590;SDS011;3331;47.978;7.662;2022-11-15T11:21:17;17.40;;;4.30;;
6590;SDS011;3331;47.978;7.662;2022-11-15T11:23:45;11.70;;;2.93;;
6590;SDS011;3331;47.978;7.662;2022-11-15T11:26:18;8.53;;;3.10;;
6590;SDS011;3331;47.978;7.662;2022-11-15T11:28:53;4.57;;;3.17;;
6590;SDS011;3331;47.978;7.662;2022-11-15T11:31:25;5.87;;;2.80;;
6590;SDS011;3331;47.978;7.662;2022-11-15T11:33:57;3.50;;;2.93;;
6590;SDS011;3331;47.978;7.662;2022-11-15T11:36:26;4.80;;;2.87;;
6590;SDS011;3331;47.978;7.662;2022-11-15T11:38:57;7.73;;;3.07;;
6590;SDS011;3331;47.978;7.662;2022-11-15T11:41:37;8.30;;;3.27;;
6590;SDS011;3331;47.978;7.662;2022-11-15T11:44:10;9.17;;;3.00;;
6590;SDS011;3331;47.978;7.662;2022-11-15T11:46:45;3.63;;;3.00;;
6590;SDS011;3331;47.978;7.662;2022-11-15T11:49:15;12.93;;;6.27;;
6590;SDS011;3331;47.978;7.662;2022-11-15T11:51:43;5.00;;;3.20;;
6590;SDS011;3331;47.978;7.662;2022-11-15T11:54:12;11.57;;;4.50;;
6590;SDS011;3331;47.978;7.662;2022-11-15T11:56:39;14.27;;;6.40;;
6590;SDS011;3331;47.978;7.662;2022-11-15T11:59:10;12.10;;;6.30;;
6590;SDS011;3331;47.978;7.662;2022-11-15T12:01:39;10.40;;;4.70;;
6590;SDS011;3331;47.978;7.662;2022-11-15T12:04:09;4.97;;;3.43;;
6590;SDS011;3331;47.978;7.662;2022-11-15T12:06:38;7.33;;;2.80;;
6590;SDS011;3331;47.978;7.662;2022-11-15T12:09:11;8.80;;;5.03;;
6590;SDS011;3331;47.978;7.662;2022-11-15T12:11:43;3.03;;;2.73;;
6590;SDS011;3331;47.978;7.662;2022-11-15T12:14:12;4.57;;;3.13;;
6590;SDS011;3331;47.978;7.662;2022-11-15T12:16:42;4.17;;;2.90;;
6590;SDS011;3331;47.978;7.662;2022-11-15T12:19:09;7.17;;;2.90;;
6590;SDS011;3331;47.978;7.662;2022-11-15T12:21:36;4.90;;;3.93;;
6590;SDS011;3331;47.978;7.662;2022-11-15T12:24:06;9.23;;;5.93;;
6590;SDS011;3331;47.978;7.662;2022-11-15T12:26:35;9.10;;;5.43;;
6590;SDS011;3331;47.978;7.662;2022-11-15T12:29:03;12.90;;;8.20;;
6590;SDS011;3331;47.978;7.662;2022-11-15T12:31:37;15.77;;;9.93;;
6590;SDS011;3331;47.978;7.662;2022-11-15T12:34:05;10.10;;;6.40;;
6590;SDS011;3331;47.978;7.662;2022-11-15T12:36:39;11.00;;;4.80;;
6590;SDS011;3331;47.978;7.662;2022-11-15T12:39:06;6.97;;;4.53;;
6590;SDS011;3331;47.978;7.662;2022-11-15T12:41:34;8.87;;;5.30;;
6590;SDS011;3331;47.978;7.662;2022-11-15T12:44:01;13.70;;;6.20;;
6590;SDS011;3331;47.978;7.662;2022-11-15T12:52:08;5.70;;;3.37;;
6590;SDS011;3331;47.978;7.662;2022-11-15T12:54:51;8.17;;;3.17;;
6590;SDS011;3331;47.978;7.662;2022-11-15T12:57:28;4.50;;;2.97;;
6590;SDS011;3331;47.978;7.662;2022-11-15T12:59:56;4.97;;;2.90;;
6590;SDS011;3331;47.978;7.662;2022-11-15T13:02:24;6.07;;;3.37;;
6590;SDS011;3331;47.978;7.662;2022-11-15T13:04:53;17.70;;;3.77;;
6590;SDS011;3331;47.978;7.662;2022-11-15T13:10:07;7.10;;;3.30;;
6590;SDS011;3331;47.978;7.662;2022-11-15T13:12:49;5.90;;;3.17;;
6590;SDS011;3331;47.978;7.662;2022-11-15T13:15:35;6.10;;;2.80;;
6590;SDS011;3331;47.978;7.662;2022-11-15T13:20:44;8.27;;;4.73;;
6590;SDS011;3331;47.978;7.662;2022-11-15T13:23:11;6.93;;;3.40;;
6590;SDS011;3331;47.978;7.662;2022-11-15T13:28:31;6.37;;;3.50;;
6590;SDS011;3331;47.978;7.662;2022-11-15T13:30:58;4.17;;;3.03;;
6590;SDS011;3331;47.978;7.662;2022-11-15T13:33:30;7.10;;;4.33;;
6590;SDS011;3331;47.978;7.662;2022-11-15T13:35:58;14.43;;;7.20;;
6590;SDS011;3331;47.978;7.662;2022-11-15T13:38:26;64.37;;;23.87;;
6590;SDS011;3331;47.978;7.662;2022-11-15T13:40:52;53.53;;;19.93;;
6590;SDS011;3331;47.978;7.662;2022-11-15T13:43:24;22.13;;;9.17;;
6590;SDS011;3331;47.978;7.662;2022-11-15T13:46:03;13.17;;;6.70;;
6590;SDS011;3331;47.978;7.662;2022-11-15T13:48:30;15.80;;;6.90;;
6590;SDS011;3331;47.978;7.662;2022-11-15T13:50:57;56.17;;;19.97;;
6590;SDS011;3331;47.978;7.662;2022-11-15T13:53:24;41.10;;;18.00;;
6590;SDS011;3331;47.978;7.662;2022-11-15T13:55:51;42.20;;;25.97;;
6590;SDS011;3331;47.978;7.662;2022-11-15T13:58:18;29.80;;;16.53;;
6590;SDS011;3331;47.978;7.662;2022-11-15T14:00:44;29.93;;;19.40;;
6590;SDS011;3331;47.978;7.662;2022-11-15T14:03:14;16.30;;;12.10;;
6590;SDS011;3331;47.978;7.662;2022-11-15T14:05:42;13.17;;;7.80;;
6590;SDS011;3331;47.978;7.662;2022-11-15T14:08:21;10.77;;;6.07;;
6590;SDS011;3331;47.978;7.662;2022-11-15T14:10:48;8.80;;;4.23;;
6590;SDS011;3331;47.978;7.662;2022-11-15T14:13:26;6.57;;;3.70;;
6590;SDS011;3331;47.978;7.662;2022-11-15T14:15:53;10.47;;;4.30;;
6590;SDS011;3331;47.978;7.662;2022-11-15T14:21:05;7.00;;;3.53;;
6590;SDS011;3331;47.978;7.662;2022-11-15T14:23:33;9.23;;;3.87;;
6590;SDS011;3331;47.978;7.662;2022-11-15T14:25:59;9.43;;;3.57;;
6590;SDS011;3331;47.978;7.662;2022-11-15T14:28:29;6.53;;;3.70;;
6590;SDS011;3331;47.978;7.662;2022-11-15T14:30:58;7.37;;;3.10;;
6590;SDS011;3331;47.978;7.662;2022-11-15T14:33:26;4.27;;;3.27;;
6590;SDS011;3331;47.978;7.662;2022-11-15T14:35:54;6.87;;;3.47;;
6590;SDS011;3331;47.978;7.662;2022-11-15T14:38:22;4.07;;;3.20;;
6590;SDS011;3331;47.978;7.662;2022-11-15T14:40:50;5.27;;;3.87;;
6590;SDS011;3331;47.978;7.662;2022-11-15T14:43:16;7.03;;;3.70;;
6590;SDS011;3331;47.978;7.662;2022-11-15T14:45:43;8.47;;;4.97;;
6590;SDS011;3331;47.978;7.662;2022-11-15T14:48:09;7.37;;;4.90;;
6590;SDS011;3331;47.978;7.662;2022-11-15T14:50:36;11.20;;;5.03;;
6590;SDS011;3331;47.978;7.662;2022-11-15T14:53:02;8.53;;;4.10;;
6590;SDS011;3331;47.978;7.662;2022-11-15T14:55:29;8.77;;;3.90;;
6590;SDS011;3331;47.978;7.662;2022-11-15T14:57:58;5.53;;;3.47;;
6590;SDS011;3331;47.978;7.662;2022-11-15T15:00:27;4.80;;;3.73;;
6590;SDS011;3331;47.978;7.662;2022-11-15T15:02:54;8.57;;;3.60;;
6590;SDS011;3331;47.978;7.662;2022-11-15T15:05:21;7.37;;;4.20;;
6590;SDS011;3331;47.978;7.662;2022-11-15T15:07:48;7.90;;;4.27;;
6590;SDS011;3331;47.978;7.662;2022-11-15T15:10:16;5.73;;;3.97;;
6590;SDS011;3331;47.978;7.662;2022-11-15T15:12:42;6.80;;;3.40;;
6590;SDS011;3331;47.978;7.662;2022-11-15T15:15:14;15.20;;;7.30;;
6590;SDS011;3331;47.978;7.662;2022-11-15T15:17:40;13.53;;;6.57;;
6590;SDS011;3331;47.978;7.662;2022-11-15T15:20:07;10.13;;;5.00;;
6590;SDS011;3331;47.978;7.662;2022-11-15T15:22:34;8.70;;;5.20;;
6590;SDS011;3331;47.978;7.662;2022-11-15T15:25:00;11.27;;;6.83;;
6590;SDS011;3331;47.978;7.662;2022-11-15T15:27:27;7.87;;;4.77;;
6590;SDS011;3331;47.978;7.662;2022-11-15T15:29:54;7.87;;;4.57;;
6590;SDS011;3331;47.978;7.662;2022-11-15T15:32:21;7.67;;;4.43;;
6590;SDS011;3331;47.978;7.662;2022-11-15T15:34:48;6.30;;;4.53;;
6590;SDS011;3331;47.978;7.662;2022-11-15T15:37:24;10.20;;;5.43;;
6590;SDS011;3331;47.978;7.662;2022-11-15T15:39:51;11.20;;;5.80;;